Time;durP1;ratioP1;P1;durP2;ratioP2;P2;SDS_P1;SDS_P2;PMS_P1;PMS_P2;Temp;Humidity;BMP_temperature;BMP_pressure;BME280_temperature;BME280_humidity;BME280_pressure;Samples;Min_cycle;Max_cycle;Signal;HPM_P1;HPM_P2
2023/09/05 00:01:41;;;;;;;3.65;1.98;;;;;;;17.29;100.00;101459.38;5212448;28;20362;-72
2023/09/05 00:04:13;;;;;;;3.50;1.88;;;;;;;17.34;100.00;101452.09;5211759;28;20037;-73
2023/09/05 00:06:46;;;;;;;3.08;1.88;;;;;;;17.41;100.00;101441.13;5213966;28;20115;-72
2023/09/05 00:09:20;;;;;;;3.33;1.90;;;;;;;17.36;100.00;101434.38;5211607;28;20088;-72
2023/09/05 00:11:51;;;;;;;3.95;1.80;;;;;;;17.39;100.00;101434.22;5207985;28;20037;-72
2023/09/05 00:14:21;;;;;;;4.85;2.00;;;;;;;17.31;100.00;101431.91;5212573;28;20402;-72
2023/09/05 00:16:51;;;;;;;4.03;1.90;;;;;;;17.32;100.00;101427.50;5210423;28;20057;-72
2023/09/05 00:19:21;;;;;;;3.22;1.85;;;;;;;17.35;100.00;101427.38;5211279;28;20032;-72
2023/09/05 00:21:52;;;;;;;3.97;1.90;;;;;;;17.33;100.00;101410.69;5208772;28;20032;-72
2023/09/05 00:24:41;;;;;;;5.20;1.90;;;;;;;17.41;100.00;101412.06;5210037;28;20029;-73
2023/09/05 00:27:11;;;;;;;3.08;1.88;;;;;;;17.44;100.00;101403.09;5198429;28;20025;-72
2023/09/05 00:29:42;;;;;;;4.22;1.42;;;;;;;17.48;100.00;101407.31;5203257;28;20013;-72
2023/09/05 00:32:13;;;;;;;3.13;1.63;;;;;;;17.57;100.00;101406.84;5207541;28;20120;-73
2023/09/05 00:34:44;;;;;;;2.65;1.75;;;;;;;17.57;100.00;101406.84;5208498;28;20069;-72
2023/09/05 00:37:22;;;;;;;3.47;1.73;;;;;;;17.69;100.00;101404.41;5208847;28;20490;-72
2023/09/05 00:39:52;;;;;;;3.40;1.67;;;;;;;17.70;100.00;101400.00;5211930;28;20033;-72
2023/09/05 00:42:23;;;;;;;4.68;1.75;;;;;;;17.62;100.00;101404.84;5211899;28;20021;-72
2023/09/05 00:44:53;;;;;;;3.90;1.67;;;;;;;17.72;100.00;101400.78;5212685;28;20101;-72
2023/09/05 00:47:28;;;;;;;3.85;1.63;;;;;;;17.78;100.00;101409.25;5210513;28;20538;-72
2023/09/05 00:50:01;;;;;;;2.92;1.70;;;;;;;17.64;100.00;101408.25;5210965;28;20102;-72
2023/09/05 00:52:32;;;;;;;3.28;1.70;;;;;;;17.58;100.00;101395.34;5205571;28;20035;-72
2023/09/05 00:55:02;;;;;;;3.78;1.73;;;;;;;17.57;100.00;101405.06;5212035;28;20021;-72
2023/09/05 00:57:33;;;;;;;2.65;1.77;;;;;;;17.50;100.00;101400.16;5213165;28;20171;-72
2023/09/05 01:00:09;;;;;;;2.47;1.75;;;;;;;17.49;100.00;101394.00;5211475;28;20534;-72
2023/09/05 01:02:40;;;;;;;4.38;1.90;;;;;;;17.41;100.00;101408.56;5201966;28;20055;-72
2023/09/05 01:05:11;;;;;;;4.38;1.73;;;;;;;17.35;100.00;101411.50;5208528;28;20068;-73
2023/09/05 01:07:53;;;;;;;3.78;1.90;;;;;;;17.33;100.00;101413.34;5209967;28;20059;-72
2023/09/05 01:10:31;;;;;;;2.80;1.90;;;;;;;17.42;100.00;101413.78;5206381;28;20117;-72
2023/09/05 01:13:01;;;;;;;2.30;1.58;;;;;;;17.38;100.00;101408.72;5212126;28;20048;-73
2023/09/05 01:15:32;;;;;;;4.07;2.10;;;;;;;17.32;100.00;101412.47;5211741;28;20083;-72
2023/09/05 01:18:03;;;;;;;3.58;1.85;;;;;;;17.26;100.00;101412.78;5212748;28;20021;-72
2023/09/05 01:20:55;;;;;;;3.30;1.67;;;;;;;17.18;100.00;101408.81;5209344;28;20021;-72
2023/09/05 01:23:42;;;;;;;3.15;1.70;;;;;;;17.20;100.00;101402.53;5211474;28;20366;-72
2023/09/05 01:26:13;;;;;;;4.75;1.77;;;;;;;17.17;100.00;101401.81;5210239;28;20029;-72
2023/09/05 01:28:45;;;;;;;3.40;2.10;;;;;;;17.09;100.00;101403.97;5203618;28;20035;-72
2023/09/05 01:31:15;;;;;;;4.03;2.00;;;;;;;17.04;100.00;101406.84;5209244;28;20130;-72
2023/09/05 01:33:46;;;;;;;2.97;1.77;;;;;;;17.06;100.00;101412.06;5207898;28;20033;-72
2023/09/05 01:36:16;;;;;;;2.85;1.92;;;;;;;17.13;100.00;101406.41;5207357;28;20025;-72
2023/09/05 01:38:46;;;;;;;2.55;1.60;;;;;;;17.09;100.00;101401.31;5204098;28;20076;-72
2023/09/05 01:41:17;;;;;;;4.60;2.10;;;;;;;17.25;100.00;101394.34;5205917;28;20029;-72
2023/09/05 01:43:47;;;;;;;2.83;1.90;;;;;;;17.15;100.00;101401.88;5210454;28;20356;-72
2023/09/05 01:46:18;;;;;;;3.50;2.00;;;;;;;17.01;100.00;101401.69;5211399;28;20848;-72
2023/09/05 01:48:48;;;;;;;5.72;2.13;;;;;;;16.89;100.00;101398.81;5212546;28;20247;-72
2023/09/05 01:51:18;;;;;;;4.05;2.35;;;;;;;16.86;100.00;101396.31;5211289;28;20049;-72
2023/09/05 01:53:49;;;;;;;5.03;2.10;;;;;;;16.84;100.00;101399.00;5209012;28;20525;-72
2023/09/05 01:56:19;;;;;;;4.57;2.15;;;;;;;16.82;100.00;101394.75;5209813;28;20029;-72
2023/09/05 01:58:49;;;;;;;3.65;2.00;;;;;;;16.82;100.00;101389.47;5207663;28;20415;-72
2023/09/05 02:01:20;;;;;;;3.55;2.10;;;;;;;16.78;100.00;101393.19;5209310;28;20025;-72
2023/09/05 02:03:51;;;;;;;3.95;2.30;;;;;;;16.78;100.00;101385.28;5210455;28;20029;-72
2023/09/05 02:06:22;;;;;;;4.20;2.17;;;;;;;16.78;100.00;101383.47;5212149;28;20509;-72
2023/09/05 02:08:52;;;;;;;4.63;2.33;;;;;;;16.73;100.00;101387.25;5210856;28;20027;-72
2023/09/05 02:11:22;;;;;;;4.68;1.83;;;;;;;16.67;100.00;101394.63;5204972;28;20034;-72
2023/09/05 02:13:52;;;;;;;2.97;1.70;;;;;;;16.59;100.00;101392.34;5211572;28;20103;-72
2023/09/05 02:16:24;;;;;;;3.08;1.95;;;;;;;16.64;100.00;101387.72;5210487;28;20124;-72
2023/09/05 02:18:54;;;;;;;3.65;2.20;;;;;;;16.55;100.00;101396.06;5211442;28;20315;-72
2023/09/05 02:21:25;;;;;;;5.05;2.45;;;;;;;16.54;100.00;101394.34;5211353;28;20091;-72
2023/09/05 02:23:55;;;;;;;3.40;2.10;;;;;;;16.57;100.00;101398.63;5210751;28;20116;-72
2023/09/05 02:26:25;;;;;;;4.10;2.40;;;;;;;16.56;100.00;101392.47;5210654;28;20275;-72
2023/09/05 02:28:58;;;;;;;3.07;2.00;;;;;;;16.56;100.00;101403.03;5207410;28;20481;-72
2023/09/05 02:31:28;;;;;;;4.60;2.20;;;;;;;16.59;100.00;101402.91;5209845;28;20759;-72
2023/09/05 02:33:59;;;;;;;5.28;2.50;;;;;;;16.55;100.00;101401.34;5214233;28;20039;-72
2023/09/05 02:36:30;;;;;;;4.53;2.80;;;;;;;16.53;100.00;101397.91;5215029;28;20494;-71
2023/09/05 02:39:01;;;;;;;6.88;2.70;;;;;;;16.62;100.00;101400.13;5213326;28;20029;-72
2023/09/05 02:41:31;;;;;;;4.45;2.63;;;;;;;16.68;100.00;101398.97;5214749;28;20029;-72
2023/09/05 02:44:01;;;;;;;4.50;2.43;;;;;;;16.56;100.00;101408.31;5213344;28;20016;-71
2023/09/05 02:46:32;;;;;;;5.95;2.30;;;;;;;16.45;100.00;101400.06;5216323;28;20271;-72
2023/09/05 02:49:02;;;;;;;6.57;2.40;;;;;;;16.36;100.00;101400.47;5211886;28;20505;-71
2023/09/05 02:51:32;;;;;;;4.73;2.50;;;;;;;16.32;100.00;101400.66;5207112;28;20272;-71
2023/09/05 02:54:02;;;;;;;3.42;2.53;;;;;;;16.27;100.00;101392.97;5209464;28;20274;-72
2023/09/05 02:56:33;;;;;;;2.95;2.00;;;;;;;16.29;100.00;101391.09;5214102;28;20021;-72
2023/09/05 02:59:03;;;;;;;5.40;2.50;;;;;;;16.23;100.00;101391.38;5211190;28;20028;-71
2023/09/05 03:01:33;;;;;;;4.32;2.60;;;;;;;16.14;100.00;101394.44;5214484;28;20033;-72
2023/09/05 03:04:04;;;;;;;5.07;2.50;;;;;;;16.07;100.00;101398.25;5213559;28;20032;-72
2023/09/05 03:06:34;;;;;;;3.92;2.50;;;;;;;16.04;100.00;101389.66;5213161;28;20092;-72
2023/09/05 03:09:04;;;;;;;4.10;2.42;;;;;;;16.05;100.00;101394.00;5207223;28;20017;-72
2023/09/05 03:11:34;;;;;;;4.50;2.35;;;;;;;15.94;100.00;101391.84;5205483;28;20082;-72
2023/09/05 03:14:05;;;;;;;5.22;2.33;;;;;;;15.61;100.00;101397.72;5210495;28;20055;-71
2023/09/05 03:16:35;;;;;;;3.88;2.25;;;;;;;15.65;100.00;101400.16;5215899;28;20033;-72
2023/09/05 03:19:06;;;;;;;5.13;2.53;;;;;;;15.73;100.00;101392.75;5212180;28;20024;-72
2023/09/05 03:21:37;;;;;;;3.10;1.98;;;;;;;15.77;100.00;101389.09;5211772;28;20275;-72
2023/09/05 03:24:08;;;;;;;3.53;2.08;;;;;;;15.59;100.00;101384.63;5215177;28;20051;-72
2023/09/05 03:26:38;;;;;;;3.72;2.13;;;;;;;15.69;100.00;101385.09;5206936;28;20027;-72
2023/09/05 03:29:08;;;;;;;6.73;2.13;;;;;;;15.64;100.00;101387.91;5208209;28;20473;-72
2023/09/05 03:31:40;;;;;;;3.43;2.00;;;;;;;15.45;100.00;101381.72;5210399;28;20307;-72
2023/09/05 03:34:10;;;;;;;4.10;1.85;;;;;;;15.51;100.00;101389.34;5209817;28;20316;-72
2023/09/05 03:36:40;;;;;;;2.92;2.13;;;;;;;15.42;100.00;101386.25;5212010;28;20063;-72
2023/09/05 03:39:11;;;;;;;3.20;2.10;;;;;;;15.31;100.00;101388.47;5207474;28;20509;-72
2023/09/05 03:41:41;;;;;;;3.40;2.00;;;;;;;15.37;100.00;101391.72;5210850;28;20267;-72
2023/09/05 03:44:12;;;;;;;4.28;2.20;;;;;;;15.34;100.00;101391.00;5212063;28;20283;-72
2023/09/05 03:46:43;;;;;;;4.35;2.10;;;;;;;15.29;100.00;101385.06;5213093;28;20104;-72
2023/09/05 03:49:13;;;;;;;4.15;2.45;;;;;;;15.25;100.00;101386.94;5210651;28;20021;-72
2023/09/05 03:51:44;;;;;;;4.70;2.28;;;;;;;15.41;100.00;101380.16;5210212;28;20444;-72
2023/09/05 03:54:14;;;;;;;3.30;2.00;;;;;;;15.24;100.00;101387.00;5211998;28;20024;-72
2023/09/05 03:56:44;;;;;;;2.90;2.17;;;;;;;15.17;100.00;101385.56;5211649;28;20108;-72
2023/09/05 03:59:15;;;;;;;5.40;2.40;;;;;;;15.12;100.00;101390.13;5209647;28;20636;-72
2023/09/05 04:01:48;;;;;;;3.30;2.10;;;;;;;15.17;100.00;101386.38;5212097;28;20021;-72
2023/09/05 04:04:18;;;;;;;4.25;1.95;;;;;;;15.11;100.00;101391.91;5211038;28;20021;-72
2023/09/05 04:06:49;;;;;;;4.28;2.05;;;;;;;15.05;100.00;101400.03;5212945;28;20231;-72
2023/09/05 04:09:19;;;;;;;3.70;2.10;;;;;;;15.03;100.00;101396.63;5207482;28;20029;-72
2023/09/05 04:11:49;;;;;;;3.07;2.00;;;;;;;15.02;100.00;101391.44;5206153;28;20041;-72
2023/09/05 04:14:19;;;;;;;3.78;2.17;;;;;;;14.97;100.00;101394.25;5209799;28;20284;-73
2023/09/05 04:16:50;;;;;;;6.03;2.00;;;;;;;14.99;100.00;101392.41;5209736;28;20562;-72
2023/09/05 04:19:20;;;;;;;4.85;2.58;;;;;;;15.07;100.00;101403.50;5208829;28;20079;-72
2023/09/05 04:21:50;;;;;;;3.70;2.22;;;;;;;15.00;100.00;101409.91;5206854;28;20029;-72
2023/09/05 04:24:21;;;;;;;4.07;2.47;;;;;;;14.85;100.00;101405.25;5205517;28;20444;-72
2023/09/05 04:26:53;;;;;;;4.55;2.17;;;;;;;14.85;100.00;101404.41;5197493;28;20063;-72
2023/09/05 04:29:23;;;;;;;8.13;2.47;;;;;;;14.83;100.00;101408.88;5230846;28;20047;-72
2023/09/05 04:31:55;;;;;;;3.17;2.10;;;;;;;14.90;100.00;101408.59;5208079;28;20033;-72
2023/09/05 04:34:25;;;;;;;4.88;2.42;;;;;;;14.84;100.00;101408.81;5211484;28;20485;-72
2023/09/05 04:36:56;;;;;;;3.60;2.10;;;;;;;15.07;100.00;101414.03;5207010;28;20036;-72
2023/09/05 04:39:26;;;;;;;5.20;2.20;;;;;;;14.92;100.00;101416.41;5210952;28;20107;-72
2023/09/05 04:41:57;;;;;;;4.10;2.30;;;;;;;14.90;100.00;101419.13;5211110;28;20021;-72
2023/09/05 04:44:27;;;;;;;3.63;2.20;;;;;;;14.87;100.00;101424.47;5211112;28;20390;-73
2023/09/05 04:47:38;;;;;;;4.43;2.45;;;;;;;14.82;100.00;101422.09;5208088;28;20278;-72
2023/09/05 04:50:08;;;;;;;4.18;2.35;;;;;;;15.01;100.00;101419.53;5123263;28;20491;-72
2023/09/05 04:52:39;;;;;;;7.28;2.40;;;;;;;15.13;100.00;101421.69;5118819;28;20051;-72
2023/09/05 04:55:09;;;;;;;4.27;2.30;;;;;;;14.99;100.00;101426.63;5175527;28;20075;-71
2023/09/05 04:57:42;;;;;;;6.07;2.47;;;;;;;15.01;100.00;101418.69;5205973;28;20325;-72
2023/09/05 05:00:13;;;;;;;7.05;2.38;;;;;;;14.96;100.00;101418.00;5211280;28;20021;-72
2023/09/05 05:02:44;;;;;;;3.05;2.10;;;;;;;15.13;100.00;101418.16;5200377;28;20386;-72
2023/09/05 05:05:14;;;;;;;7.20;1.90;;;;;;;15.14;100.00;101423.38;5203981;28;20021;-72
2023/09/05 05:07:45;;;;;;;3.60;2.33;;;;;;;15.06;100.00;101422.84;5204790;28;20057;-72
2023/09/05 05:10:15;;;;;;;4.57;2.10;;;;;;;14.92;100.00;101417.28;5204251;28;20279;-72
2023/09/05 05:12:46;;;;;;;3.17;1.90;;;;;;;15.16;100.00;101418.06;5200923;28;20037;-72
2023/09/05 05:15:16;;;;;;;4.03;1.83;;;;;;;15.14;100.00;101412.84;5206349;28;20465;-72
2023/09/05 05:17:46;;;;;;;3.65;1.90;;;;;;;15.26;100.00;101419.38;5204554;28;20022;-72
2023/09/05 05:20:18;;;;;;;4.40;1.98;;;;;;;15.10;100.00;101423.56;5204146;28;20025;-73
2023/09/05 05:22:48;;;;;;;3.47;1.80;;;;;;;15.06;100.00;101414.97;5206783;28;20033;-72
2023/09/05 05:25:19;;;;;;;4.45;2.10;;;;;;;14.86;100.00;101416.66;5202198;28;20037;-72
2023/09/05 05:27:49;;;;;;;5.30;1.90;;;;;;;14.87;100.00;101413.94;5199409;28;20594;-72
2023/09/05 05:30:20;;;;;;;4.97;2.40;;;;;;;15.01;100.00;101410.78;5200206;28;20022;-72
2023/09/05 05:32:50;;;;;;;4.85;3.22;;;;;;;15.14;100.00;101407.59;5205291;28;20066;-72
2023/09/05 05:35:20;;;;;;;5.75;3.72;;;;;;;15.16;100.00;101404.91;5204005;28;20420;-72
2023/09/05 05:37:51;;;;;;;6.55;3.95;;;;;;;15.46;100.00;101401.88;5204844;28;20596;-72
2023/09/05 05:40:21;;;;;;;7.05;4.28;;;;;;;15.52;100.00;101398.13;5209605;28;20494;-72
2023/09/05 05:42:51;;;;;;;5.78;3.80;;;;;;;15.60;100.00;101401.28;5208137;28;20040;-72
2023/09/05 05:45:22;;;;;;;7.43;4.57;;;;;;;15.73;100.00;101394.56;5207091;28;20029;-72
2023/09/05 05:47:53;;;;;;;8.23;4.75;;;;;;;15.79;100.00;101397.78;5206568;28;20272;-72
2023/09/05 05:50:23;;;;;;;7.25;4.65;;;;;;;15.83;100.00;101395.84;5208067;28;20308;-71
2023/09/05 05:52:53;;;;;;;7.67;5.53;;;;;;;15.89;100.00;101400.88;5207700;28;20034;-72
2023/09/05 05:55:24;;;;;;;6.78;4.82;;;;;;;16.08;100.00;101391.22;5199743;28;20315;-73
2023/09/05 05:57:54;;;;;;;8.68;4.97;;;;;;;16.22;100.00;101397.56;5202416;28;20033;-72
2023/09/05 06:00:25;;;;;;;10.55;5.78;;;;;;;16.24;100.00;101400.16;5208603;28;20112;-72
2023/09/05 06:02:55;;;;;;;10.50;5.47;;;;;;;16.39;100.00;101400.31;5208097;28;20041;-72
2023/09/05 06:05:26;;;;;;;7.68;5.47;;;;;;;16.44;100.00;101398.34;5205929;28;20280;-72
2023/09/05 06:07:56;;;;;;;6.80;4.43;;;;;;;16.59;100.00;101397.63;5210221;28;20115;-72
2023/09/05 06:10:26;;;;;;;7.93;5.03;;;;;;;16.63;100.00;101400.97;5210312;28;20021;-72
2023/09/05 06:12:57;;;;;;;7.85;4.85;;;;;;;16.71;100.00;101394.41;5212022;28;20024;-72
2023/09/05 06:15:27;;;;;;;7.33;4.70;;;;;;;16.77;100.00;101404.69;5211039;28;20493;-73
2023/09/05 06:17:57;;;;;;;8.15;4.85;;;;;;;16.99;100.00;101408.00;5215463;28;20270;-72
2023/09/05 06:20:32;;;;;;;8.20;4.78;;;;;;;17.11;100.00;101402.13;5206990;28;20391;-71
2023/09/05 06:23:04;;;;;;;7.40;4.88;;;;;;;17.25;100.00;101403.16;5213687;28;20041;-72
2023/09/05 06:25:34;;;;;;;7.63;4.22;;;;;;;17.37;100.00;101404.34;5209901;28;20124;-73
2023/09/05 06:28:04;;;;;;;6.27;4.00;;;;;;;17.52;100.00;101401.78;5213419;28;20460;-73
2023/09/05 06:30:35;;;;;;;6.78;4.13;;;;;;;17.69;100.00;101401.78;5207947;28;20423;-73
2023/09/05 06:33:05;;;;;;;5.88;3.90;;;;;;;17.83;100.00;101407.22;5212913;28;20060;-72
2023/09/05 06:35:36;;;;;;;6.60;4.00;;;;;;;17.88;100.00;101401.69;5207811;28;20108;-73
2023/09/05 06:38:08;;;;;;;6.13;3.92;;;;;;;17.98;100.00;101397.63;5212874;28;20028;-73
2023/09/05 06:40:38;;;;;;;6.50;4.07;;;;;;;18.12;100.00;101410.97;5208316;28;20280;-73
2023/09/05 06:43:09;;;;;;;5.40;3.50;;;;;;;18.25;100.00;101412.03;5207966;28;20027;-72
2023/09/05 06:45:40;;;;;;;11.68;3.65;;;;;;;18.31;100.00;101412.59;5210841;28;20036;-73
2023/09/05 06:48:10;;;;;;;8.68;3.58;;;;;;;18.38;100.00;101421.06;5212617;28;20497;-73
2023/09/05 06:50:40;;;;;;;8.60;3.60;;;;;;;18.89;100.00;101417.25;5207752;28;20075;-73
2023/09/05 06:53:11;;;;;;;5.30;2.95;;;;;;;19.09;100.00;101421.44;5215033;28;20433;-72
2023/09/05 06:55:41;;;;;;;6.77;2.63;;;;;;;19.22;100.00;101425.97;5213471;28;20389;-73
2023/09/05 06:58:11;;;;;;;4.97;2.67;;;;;;;19.63;100.00;101421.75;5209679;28;20539;-72
2023/09/05 07:00:41;;;;;;;3.40;2.53;;;;;;;21.82;98.25;101413.75;5210279;28;20279;-73
2023/09/05 07:03:13;;;;;;;6.07;1.93;;;;;;;24.22;83.68;101398.44;5210255;28;20288;-73
2023/09/05 07:05:45;;;;;;;4.47;1.70;;;;;;;25.87;74.88;101404.25;5210271;28;20322;-74
2023/09/05 07:08:16;;;;;;;3.08;1.73;;;;;;;26.96;71.56;101403.31;5209680;28;20052;-72
2023/09/05 07:10:47;;;;;;;2.72;1.73;;;;;;;26.39;71.32;101402.28;5209820;28;20016;-74
2023/09/05 07:13:18;;;;;;;6.38;1.90;;;;;;;28.00;66.56;101394.44;5211586;28;20057;-73
2023/09/05 07:15:48;;;;;;;4.43;1.70;;;;;;;28.71;65.03;101395.56;5210064;28;20079;-74
2023/09/05 07:18:18;;;;;;;3.90;1.53;;;;;;;30.02;61.31;101387.44;5208275;28;20355;-74
2023/09/05 07:20:49;;;;;;;3.23;1.67;;;;;;;28.98;64.79;101391.91;5205619;28;20287;-74
2023/09/05 07:23:19;;;;;;;2.92;1.30;;;;;;;30.15;61.75;101392.41;5209978;28;20029;-74
2023/09/05 07:25:49;;;;;;;4.88;1.70;;;;;;;31.50;58.56;101392.91;5208676;28;20542;-74
2023/09/05 07:28:20;;;;;;;4.33;1.40;;;;;;;30.32;60.43;101392.34;5206934;28;20467;-74
2023/09/05 07:30:50;;;;;;;1.60;1.13;;;;;;;31.07;60.17;101381.50;5209596;28;20287;-74
2023/09/05 07:33:20;;;;;;;2.30;1.50;;;;;;;29.86;62.59;101386.44;5211949;28;20490;-74
2023/09/05 07:35:50;;;;;;;4.13;1.50;;;;;;;30.35;63.25;101389.34;5204931;28;20025;-75
2023/09/05 07:38:21;;;;;;;2.07;1.20;;;;;;;30.04;61.10;101393.53;5207283;28;20032;-74
2023/09/05 07:41:04;;;;;;;2.55;1.20;;;;;;;32.99;56.66;101385.59;5207238;28;20083;-74
2023/09/05 07:43:35;;;;;;;3.67;1.30;;;;;;;31.89;57.33;101396.63;5206780;28;20052;-74
2023/09/05 07:46:05;;;;;;;2.80;1.10;;;;;;;31.94;57.06;101388.00;5210030;28;20747;-74
2023/09/05 07:48:35;;;;;;;3.00;1.13;;;;;;;33.20;56.21;101385.00;5209571;28;20025;-74
2023/09/05 07:51:07;;;;;;;2.60;1.20;;;;;;;30.14;61.77;101393.44;5208050;28;20025;-74
2023/09/05 07:53:37;;;;;;;1.85;1.20;;;;;;;30.84;59.55;101394.78;5207667;28;20713;-74
2023/09/05 07:56:08;;;;;;;1.85;1.00;;;;;;;33.49;52.88;101409.53;5210766;28;20103;-74
2023/09/05 07:58:38;;;;;;;2.53;1.08;;;;;;;32.33;54.74;101403.31;5207965;28;20517;-74
2023/09/05 08:01:09;;;;;;;3.00;1.10;;;;;;;33.97;51.56;101407.25;5210010;28;20525;-74
2023/09/05 08:03:39;;;;;;;1.42;1.00;;;;;;;32.07;54.92;101413.50;5208361;28;20036;-74
2023/09/05 08:06:10;;;;;;;2.60;1.10;;;;;;;33.72;52.44;101404.94;5209062;28;20493;-74
2023/09/05 08:08:40;;;;;;;2.47;0.90;;;;;;;34.93;49.72;101402.56;5207027;28;20278;-74
2023/09/05 08:11:10;;;;;;;3.43;0.93;;;;;;;32.97;52.71;101411.22;5209778;28;20410;-74
2023/09/05 08:13:41;;;;;;;2.53;1.10;;;;;;;31.92;55.04;101412.53;5209070;28;20077;-74
2023/09/05 08:16:11;;;;;;;2.50;1.40;;;;;;;33.44;53.86;101411.91;5211638;28;20481;-74
2023/09/05 08:18:41;;;;;;;1.73;1.00;;;;;;;33.33;53.07;101405.03;5207883;28;20025;-74
2023/09/05 08:21:12;;;;;;;1.33;0.87;;;;;;;34.11;51.22;101400.13;5208391;28;20023;-74
2023/09/05 08:23:42;;;;;;;2.93;1.10;;;;;;;35.63;49.78;101397.09;5205859;28;20540;-74
2023/09/05 08:26:12;;;;;;;1.35;0.88;;;;;;;33.52;53.09;101409.97;5211200;28;20029;-73
2023/09/05 08:28:44;;;;;;;3.37;1.20;;;;;;;31.97;56.31;101406.59;5205640;28;20075;-74
2023/09/05 08:31:14;;;;;;;1.67;1.10;;;;;;;31.91;53.19;101404.56;5204969;28;20017;-74
2023/09/05 08:33:45;;;;;;;3.97;1.00;;;;;;;32.28;55.62;101394.03;5206851;28;20482;-74
2023/09/05 08:36:15;;;;;;;3.08;1.02;;;;;;;33.50;53.43;101384.09;5205420;28;20818;-74
2023/09/05 08:38:45;;;;;;;1.73;0.87;;;;;;;33.54;53.04;101388.97;5207052;28;20017;-72
2023/09/05 08:41:16;;;;;;;3.20;1.30;;;;;;;31.99;53.97;101393.72;5207589;28;20276;-74
2023/09/05 08:43:47;;;;;;;1.63;1.02;;;;;;;33.52;53.19;101390.16;5207912;28;20111;-74
2023/09/05 08:46:18;;;;;;;1.47;0.90;;;;;;;34.35;48.78;101387.16;5209220;28;20021;-73
2023/09/05 08:48:50;;;;;;;1.33;0.90;;;;;;;32.95;51.76;101389.69;5207022;28;20029;-73
2023/09/05 08:51:20;;;;;;;1.60;0.90;;;;;;;32.97;51.73;101381.41;5210139;28;20041;-73
2023/09/05 08:53:56;;;;;;;1.35;0.80;;;;;;;32.76;51.83;101381.16;5208563;28;20555;-73
2023/09/05 08:56:27;;;;;;;1.48;1.00;;;;;;;33.77;50.79;101376.22;5209747;28;20059;-73
2023/09/05 08:59:00;;;;;;;2.47;1.17;;;;;;;34.72;49.31;101369.91;5209297;28;20017;-73
2023/09/05 09:01:32;;;;;;;2.58;1.00;;;;;;;34.96;48.64;101364.13;5209508;28;20112;-73
2023/09/05 09:04:02;;;;;;;1.08;0.70;;;;;;;35.50;48.71;101369.75;5210085;28;20029;-73
2023/09/05 09:06:33;;;;;;;1.23;0.80;;;;;;;36.58;45.76;101366.34;5206097;28;20021;-73
2023/09/05 09:09:04;;;;;;;2.95;0.80;;;;;;;33.48;49.75;101370.69;5210048;28;20035;-73
2023/09/05 09:11:34;;;;;;;1.73;0.80;;;;;;;34.06;50.73;101368.13;5210773;28;20036;-73
2023/09/05 09:14:04;;;;;;;2.30;1.00;;;;;;;32.94;52.84;101377.16;5213169;28;20351;-73
2023/09/05 09:16:42;;;;;;;1.30;0.90;;;;;;;34.14;51.59;101378.06;5209325;28;20025;-73
2023/09/05 09:19:13;;;;;;;1.55;1.00;;;;;;;32.57;51.41;101368.00;5210834;28;20291;-73
2023/09/05 09:21:46;;;;;;;2.92;1.20;;;;;;;33.42;52.20;101370.56;5210438;28;20036;-73
2023/09/05 09:24:18;;;;;;;1.75;0.82;;;;;;;33.26;51.75;101370.69;5208697;28;20033;-73
2023/09/05 09:26:53;;;;;;;1.30;0.88;;;;;;;33.24;49.88;101375.47;5207238;28;20061;-73
2023/09/05 09:29:24;;;;;;;1.20;0.95;;;;;;;32.93;51.12;101382.75;5203726;28;20083;-71
2023/09/05 09:32:04;;;;;;;1.65;0.90;;;;;;;30.63;54.92;101379.19;5205309;28;20042;-73
2023/09/05 09:34:36;;;;;;;1.85;0.95;;;;;;;30.54;57.47;101380.13;5207918;28;20028;-72
2023/09/05 09:37:07;;;;;;;1.25;0.73;;;;;;;30.57;58.63;101379.81;5204755;28;20044;-72
2023/09/05 09:39:37;;;;;;;3.55;1.00;;;;;;;30.36;57.22;101379.38;5209792;28;20339;-72
2023/09/05 09:42:10;;;;;;;2.10;0.80;;;;;;;30.11;58.62;101377.56;5214549;28;20056;-73
2023/09/05 09:44:43;;;;;;;1.80;0.85;;;;;;;29.47;60.02;101366.28;5221761;28;20031;-72
2023/09/05 09:47:16;;;;;;;2.55;1.10;;;;;;;29.40;59.10;101367.88;5214121;28;20024;-71
2023/09/05 09:49:49;;;;;;;2.33;1.00;;;;;;;29.21;57.07;101366.19;5216383;28;20021;-72
2023/09/05 09:52:20;;;;;;;1.63;1.00;;;;;;;29.32;58.79;101359.72;5205992;28;20528;-72
2023/09/05 09:54:55;;;;;;;5.65;1.15;;;;;;;29.09;60.45;101353.13;5205794;28;20083;-72
2023/09/05 09:57:33;;;;;;;2.10;0.90;;;;;;;29.16;60.60;101356.88;5210388;28;20056;-71
2023/09/05 10:00:09;;;;;;;1.50;0.90;;;;;;;28.68;60.05;101352.81;5214530;28;20021;-73
2023/09/05 10:02:43;;;;;;;;;;;;;;;28.60;59.13;101352.69;5213921;28;20455;-72
2023/09/05 10:05:16;;;;;;;1.55;0.80;;;;;;;28.75;61.89;101357.44;5210740;28;20329;-72
2023/09/05 10:07:48;;;;;;;1.63;0.80;;;;;;;28.37;60.76;101346.03;5211983;28;20439;-72
2023/09/05 10:10:20;;;;;;;1.58;0.90;;;;;;;28.70;62.81;101346.28;5211631;28;20037;-72
2023/09/05 10:12:54;;;;;;;1.58;0.88;;;;;;;28.81;61.04;101336.16;5211595;28;20405;-71
2023/09/05 10:15:25;;;;;;;4.90;1.10;;;;;;;28.57;62.19;101337.72;5219032;28;20071;-72
2023/09/05 10:17:57;;;;;;;1.50;0.93;;;;;;;28.64;62.67;101335.28;5212445;28;20033;-73
2023/09/05 10:20:28;;;;;;;1.83;0.80;;;;;;;28.47;60.99;101330.72;5212652;28;20478;-70
2023/09/05 10:22:58;;;;;;;1.80;0.90;;;;;;;28.54;63.41;101327.28;5215574;28;20031;-72
2023/09/05 10:25:29;;;;;;;2.10;0.73;;;;;;;28.41;63.23;101326.78;5211846;28;20026;-71
2023/09/05 10:27:59;;;;;;;2.17;1.00;;;;;;;28.52;63.87;101323.03;5210347;28;20287;-72
2023/09/05 10:30:37;;;;;;;1.70;0.90;;;;;;;28.40;61.60;101322.38;5212123;28;20028;-72
2023/09/05 10:33:09;;;;;;;1.65;0.80;;;;;;;28.44;61.26;101318.38;5212631;28;20040;-72
2023/09/05 10:35:44;;;;;;;2.53;0.98;;;;;;;27.95;63.36;101316.03;5213208;28;20041;-71
2023/09/05 10:38:15;;;;;;;2.60;0.90;;;;;;;28.13;60.58;101303.50;5212906;28;20024;-71
2023/09/05 10:40:45;;;;;;;1.75;0.82;;;;;;;28.36;64.07;101301.31;5212837;28;20074;-72
2023/09/05 10:43:20;;;;;;;2.43;1.10;;;;;;;28.39;65.44;101296.47;5209937;28;20080;-71
2023/09/05 10:46:00;;;;;;;2.23;0.90;;;;;;;28.20;66.00;101296.56;5213496;28;20398;-72
2023/09/05 10:48:36;;;;;;;1.30;0.80;;;;;;;28.05;62.48;101289.97;5212479;28;20594;-72
2023/09/05 10:51:11;;;;;;;2.55;1.10;;;;;;;28.31;63.14;101298.22;5210226;28;20021;-72
2023/09/05 10:53:47;;;;;;;3.42;1.00;;;;;;;28.28;63.72;101296.66;5210216;28;20393;-72
2023/09/05 10:56:36;;;;;;;3.05;0.80;;;;;;;28.20;64.49;101290.31;5211941;28;20124;-72
2023/09/05 10:59:31;;;;;;;2.22;1.10;;;;;;;28.13;65.10;101286.53;5207520;28;20035;-72
2023/09/05 11:02:05;;;;;;;1.45;0.90;;;;;;;28.34;69.41;101288.00;5208238;28;20029;-72
2023/09/05 11:04:37;;;;;;;2.03;1.02;;;;;;;28.30;68.29;101293.81;5209867;28;20021;-72
2023/09/05 11:07:10;;;;;;;2.53;1.10;;;;;;;28.38;66.27;101286.72;5212537;28;20128;-72
2023/09/05 11:09:54;;;;;;;1.63;0.85;;;;;;;28.40;68.15;101282.03;5211728;28;20040;-72
2023/09/05 11:12:25;;;;;;;1.95;1.00;;;;;;;28.32;66.31;101284.63;5210077;28;20473;-72
2023/09/05 11:14:55;;;;;;;5.47;1.15;;;;;;;28.22;66.84;101288.31;5210535;28;20088;-72
2023/09/05 11:17:28;;;;;;;2.00;0.90;;;;;;;28.32;67.25;101290.00;5210902;28;20500;-72
2023/09/05 11:19:58;;;;;;;4.05;1.00;;;;;;;28.12;63.88;101291.06;5209398;28;20119;-72
2023/09/05 11:22:29;;;;;;;1.65;0.88;;;;;;;28.05;65.67;101281.03;5207510;28;20036;-71
2023/09/05 11:25:03;;;;;;;3.47;0.97;;;;;;;27.99;64.02;101277.09;5211260;28;20494;-72
2023/09/05 11:27:33;;;;;;;1.73;1.00;;;;;;;27.80;63.36;101279.88;5210074;28;20333;-71
2023/09/05 11:30:09;;;;;;;2.28;1.10;;;;;;;27.93;63.91;101280.41;5210702;28;20025;-72
2023/09/05 11:32:45;;;;;;;3.10;1.08;;;;;;;28.06;65.99;101272.84;5210733;28;20376;-73
2023/09/05 11:35:15;;;;;;;1.85;0.90;;;;;;;28.20;65.54;101284.94;5209948;28;20033;-73
2023/09/05 11:37:46;;;;;;;2.58;1.10;;;;;;;28.13;65.79;101279.31;5209731;28;20025;-73
2023/09/05 11:40:22;;;;;;;2.33;1.00;;;;;;;28.15;65.70;101280.00;5208870;28;20079;-73